Terminal Aerodrome Forecast
Issued by NWS Cleveland, OH

Home | Current Version | Previous Version | Text Only | Print | Product List | Glossary On
Versions: 1 2 3 4 5 6 7 8 9 10 11 12 13 14 15 16 17 18 19 20
275
FTUS41 KCLE 220945 AAA
TAFMFD
TAF AMD
KMFD 220945Z 2210/2306 35012G18KT P6SM BKN035
      TEMPO 2210/2214 BKN025
     FM221700 01011KT P6SM SCT035
     FM230000 02004KT P6SM SCT250=

USA.gov is the U.S. government's official web portal to all federal, state and local government web resources and services.